sensor_id;sensor_type;location;lat;lon;timestamp;P1;durP1;ratioP1;P2;durP2;ratioP2
81510;SDS011;70931;48.796;8.440;2023-07-20T00:00:53;5.90;;;2.10;;
81510;SDS011;70931;48.796;8.440;2023-07-20T00:03:19;5.77;;;1.97;;
81510;SDS011;70931;48.796;8.440;2023-07-20T00:05:45;6.47;;;2.10;;
81510;SDS011;70931;48.796;8.440;2023-07-20T00:08:11;5.20;;;1.90;;
81510;SDS011;70931;48.796;8.440;2023-07-20T00:10:36;4.53;;;2.20;;
81510;SDS011;70931;48.796;8.440;2023-07-20T00:13:02;5.68;;;1.90;;
81510;SDS011;70931;48.796;8.440;2023-07-20T00:15:27;8.23;;;2.40;;
81510;SDS011;70931;48.796;8.440;2023-07-20T00:17:52;5.47;;;1.97;;
81510;SDS011;70931;48.796;8.440;2023-07-20T00:20:17;7.33;;;2.20;;
81510;SDS011;70931;48.796;8.440;2023-07-20T00:22:43;4.67;;;1.93;;
81510;SDS011;70931;48.796;8.440;2023-07-20T00:25:08;4.70;;;2.00;;
81510;SDS011;70931;48.796;8.440;2023-07-20T00:27:33;5.50;;;2.05;;
81510;SDS011;70931;48.796;8.440;2023-07-20T00:29:59;6.40;;;2.37;;
81510;SDS011;70931;48.796;8.440;2023-07-20T00:32:24;4.90;;;2.00;;
81510;SDS011;70931;48.796;8.440;2023-07-20T00:34:49;5.97;;;1.93;;
81510;SDS011;70931;48.796;8.440;2023-07-20T00:37:14;4.80;;;2.43;;
81510;SDS011;70931;48.796;8.440;2023-07-20T00:39:40;5.10;;;2.13;;
81510;SDS011;70931;48.796;8.440;2023-07-20T00:42:05;6.00;;;2.40;;
81510;SDS011;70931;48.796;8.440;2023-07-20T00:44:30;5.28;;;2.35;;
81510;SDS011;70931;48.796;8.440;2023-07-20T00:46:55;5.03;;;2.00;;
81510;SDS011;70931;48.796;8.440;2023-07-20T00:49:21;6.10;;;2.10;;
81510;SDS011;70931;48.796;8.440;2023-07-20T00:51:47;5.97;;;2.15;;
81510;SDS011;70931;48.796;8.440;2023-07-20T00:54:14;5.30;;;2.10;;
81510;SDS011;70931;48.796;8.440;2023-07-20T00:56:40;8.98;;;2.15;;
81510;SDS011;70931;48.796;8.440;2023-07-20T00:59:05;5.53;;;2.00;;
81510;SDS011;70931;48.796;8.440;2023-07-20T01:01:31;5.82;;;2.22;;
81510;SDS011;70931;48.796;8.440;2023-07-20T01:03:56;6.03;;;2.20;;
81510;SDS011;70931;48.796;8.440;2023-07-20T01:06:26;6.20;;;2.13;;
81510;SDS011;70931;48.796;8.440;2023-07-20T01:11:32;6.15;;;1.90;;
81510;SDS011;70931;48.796;8.440;2023-07-20T01:14:02;5.45;;;2.40;;
81510;SDS011;70931;48.796;8.440;2023-07-20T01:16:28;5.88;;;2.20;;
81510;SDS011;70931;48.796;8.440;2023-07-20T01:18:53;5.97;;;2.13;;
81510;SDS011;70931;48.796;8.440;2023-07-20T01:21:21;6.37;;;2.70;;
81510;SDS011;70931;48.796;8.440;2023-07-20T01:32:24;6.20;;;2.70;;
81510;SDS011;70931;48.796;8.440;2023-07-20T01:34:50;5.25;;;2.00;;
81510;SDS011;70931;48.796;8.440;2023-07-20T01:37:19;5.25;;;2.10;;
81510;SDS011;70931;48.796;8.440;2023-07-20T01:39:45;7.90;;;2.42;;
81510;SDS011;70931;48.796;8.440;2023-07-20T01:42:11;6.68;;;2.33;;
81510;SDS011;70931;48.796;8.440;2023-07-20T01:44:37;5.80;;;2.05;;
81510;SDS011;70931;48.796;8.440;2023-07-20T01:47:03;8.02;;;2.38;;
81510;SDS011;70931;48.796;8.440;2023-07-20T01:49:28;4.70;;;2.08;;
81510;SDS011;70931;48.796;8.440;2023-07-20T01:51:54;5.37;;;2.00;;
81510;SDS011;70931;48.796;8.440;2023-07-20T01:54:19;8.17;;;2.30;;
81510;SDS011;70931;48.796;8.440;2023-07-20T01:56:44;8.10;;;2.53;;
81510;SDS011;70931;48.796;8.440;2023-07-20T01:59:09;6.00;;;2.30;;
81510;SDS011;70931;48.796;8.440;2023-07-20T02:01:34;6.17;;;2.40;;
81510;SDS011;70931;48.796;8.440;2023-07-20T02:04:00;6.73;;;2.67;;
81510;SDS011;70931;48.796;8.440;2023-07-20T02:06:25;7.07;;;2.10;;
81510;SDS011;70931;48.796;8.440;2023-07-20T02:08:50;4.80;;;2.20;;
81510;SDS011;70931;48.796;8.440;2023-07-20T02:11:15;4.97;;;2.30;;
81510;SDS011;70931;48.796;8.440;2023-07-20T02:13:41;5.30;;;2.33;;
81510;SDS011;70931;48.796;8.440;2023-07-20T02:16:06;5.75;;;2.00;;
81510;SDS011;70931;48.796;8.440;2023-07-20T02:18:31;5.40;;;2.07;;
81510;SDS011;70931;48.796;8.440;2023-07-20T02:20:56;7.87;;;2.60;;
81510;SDS011;70931;48.796;8.440;2023-07-20T02:23:22;6.20;;;2.20;;
81510;SDS011;70931;48.796;8.440;2023-07-20T02:25:47;6.17;;;2.57;;
81510;SDS011;70931;48.796;8.440;2023-07-20T02:28:15;5.03;;;2.20;;
81510;SDS011;70931;48.796;8.440;2023-07-20T02:30:40;6.15;;;2.53;;
81510;SDS011;70931;48.796;8.440;2023-07-20T02:33:06;5.33;;;2.27;;
81510;SDS011;70931;48.796;8.440;2023-07-20T02:35:32;6.20;;;2.40;;
81510;SDS011;70931;48.796;8.440;2023-07-20T02:37:57;5.28;;;2.10;;
81510;SDS011;70931;48.796;8.440;2023-07-20T02:40:23;6.20;;;2.40;;
81510;SDS011;70931;48.796;8.440;2023-07-20T02:42:48;5.73;;;2.10;;
81510;SDS011;70931;48.796;8.440;2023-07-20T02:45:13;5.13;;;1.98;;
81510;SDS011;70931;48.796;8.440;2023-07-20T02:47:39;6.57;;;2.20;;
81510;SDS011;70931;48.796;8.440;2023-07-20T02:50:06;5.47;;;2.10;;
81510;SDS011;70931;48.796;8.440;2023-07-20T02:52:32;5.47;;;2.33;;
81510;SDS011;70931;48.796;8.440;2023-07-20T02:54:58;5.83;;;2.57;;
81510;SDS011;70931;48.796;8.440;2023-07-20T02:57:23;7.57;;;2.90;;
81510;SDS011;70931;48.796;8.440;2023-07-20T02:59:48;5.63;;;2.70;;
81510;SDS011;70931;48.796;8.440;2023-07-20T03:02:13;5.83;;;2.40;;
81510;SDS011;70931;48.796;8.440;2023-07-20T03:04:39;5.67;;;2.03;;
81510;SDS011;70931;48.796;8.440;2023-07-20T03:07:04;5.40;;;2.57;;
81510;SDS011;70931;48.796;8.440;2023-07-20T03:09:30;5.90;;;2.10;;
81510;SDS011;70931;48.796;8.440;2023-07-20T03:11:55;6.70;;;2.33;;
81510;SDS011;70931;48.796;8.440;2023-07-20T03:14:20;6.23;;;2.37;;
81510;SDS011;70931;48.796;8.440;2023-07-20T03:16:46;5.33;;;2.20;;
81510;SDS011;70931;48.796;8.440;2023-07-20T03:19:11;5.27;;;2.33;;
81510;SDS011;70931;48.796;8.440;2023-07-20T03:21:36;6.83;;;2.47;;
81510;SDS011;70931;48.796;8.440;2023-07-20T03:24:01;5.00;;;1.80;;
81510;SDS011;70931;48.796;8.440;2023-07-20T03:26:27;5.30;;;2.20;;
81510;SDS011;70931;48.796;8.440;2023-07-20T03:28:52;8.47;;;2.50;;
81510;SDS011;70931;48.796;8.440;2023-07-20T03:31:17;6.63;;;2.50;;
81510;SDS011;70931;48.796;8.440;2023-07-20T03:33:42;5.10;;;2.20;;
81510;SDS011;70931;48.796;8.440;2023-07-20T03:36:08;5.97;;;2.53;;
81510;SDS011;70931;48.796;8.440;2023-07-20T03:38:33;5.87;;;2.27;;
81510;SDS011;70931;48.796;8.440;2023-07-20T03:40:59;6.47;;;2.17;;
81510;SDS011;70931;48.796;8.440;2023-07-20T03:43:26;6.57;;;2.63;;
81510;SDS011;70931;48.796;8.440;2023-07-20T03:45:52;7.55;;;2.25;;
81510;SDS011;70931;48.796;8.440;2023-07-20T03:48:19;6.85;;;2.42;;
81510;SDS011;70931;48.796;8.440;2023-07-20T03:50:49;5.60;;;2.15;;
81510;SDS011;70931;48.796;8.440;2023-07-20T03:53:15;6.53;;;2.42;;
81510;SDS011;70931;48.796;8.440;2023-07-20T03:55:41;7.07;;;2.42;;
81510;SDS011;70931;48.796;8.440;2023-07-20T03:58:09;5.68;;;2.13;;
81510;SDS011;70931;48.796;8.440;2023-07-20T04:00:34;5.87;;;2.20;;
81510;SDS011;70931;48.796;8.440;2023-07-20T04:02:59;6.23;;;2.40;;
81510;SDS011;70931;48.796;8.440;2023-07-20T04:05:25;5.05;;;2.33;;
81510;SDS011;70931;48.796;8.440;2023-07-20T04:07:50;5.13;;;1.97;;
81510;SDS011;70931;48.796;8.440;2023-07-20T04:10:15;5.67;;;2.50;;
81510;SDS011;70931;48.796;8.440;2023-07-20T04:12:40;7.63;;;2.30;;
81510;SDS011;70931;48.796;8.440;2023-07-20T04:15:06;5.93;;;2.53;;
81510;SDS011;70931;48.796;8.440;2023-07-20T04:17:32;4.97;;;2.15;;
81510;SDS011;70931;48.796;8.440;2023-07-20T04:19:57;5.80;;;2.27;;
81510;SDS011;70931;48.796;8.440;2023-07-20T04:22:22;6.10;;;2.40;;
81510;SDS011;70931;48.796;8.440;2023-07-20T04:24:47;5.73;;;2.37;;
81510;SDS011;70931;48.796;8.440;2023-07-20T04:27:12;7.90;;;2.40;;
81510;SDS011;70931;48.796;8.440;2023-07-20T04:29:38;5.30;;;2.20;;
81510;SDS011;70931;48.796;8.440;2023-07-20T04:32:03;6.33;;;2.10;;
81510;SDS011;70931;48.796;8.440;2023-07-20T04:34:29;6.40;;;2.17;;
81510;SDS011;70931;48.796;8.440;2023-07-20T04:36:54;5.07;;;2.40;;
81510;SDS011;70931;48.796;8.440;2023-07-20T04:39:19;6.67;;;2.60;;
81510;SDS011;70931;48.796;8.440;2023-07-20T04:41:44;5.23;;;2.40;;
81510;SDS011;70931;48.796;8.440;2023-07-20T04:44:10;6.67;;;2.30;;
81510;SDS011;70931;48.796;8.440;2023-07-20T04:46:35;6.90;;;2.20;;
81510;SDS011;70931;48.796;8.440;2023-07-20T04:49:01;7.18;;;2.28;;
81510;SDS011;70931;48.796;8.440;2023-07-20T04:51:26;7.77;;;2.30;;
81510;SDS011;70931;48.796;8.440;2023-07-20T04:53:51;4.83;;;2.07;;
81510;SDS011;70931;48.796;8.440;2023-07-20T04:56:16;6.00;;;2.33;;
81510;SDS011;70931;48.796;8.440;2023-07-20T04:58:41;6.87;;;2.43;;
81510;SDS011;70931;48.796;8.440;2023-07-20T05:01:07;5.90;;;2.20;;
81510;SDS011;70931;48.796;8.440;2023-07-20T05:03:33;5.63;;;2.30;;
81510;SDS011;70931;48.796;8.440;2023-07-20T05:05:58;6.57;;;2.20;;
81510;SDS011;70931;48.796;8.440;2023-07-20T05:08:24;5.97;;;2.27;;
81510;SDS011;70931;48.796;8.440;2023-07-20T05:10:49;6.03;;;2.33;;
81510;SDS011;70931;48.796;8.440;2023-07-20T05:13:14;7.23;;;2.30;;
81510;SDS011;70931;48.796;8.440;2023-07-20T05:15:40;5.43;;;2.38;;
81510;SDS011;70931;48.796;8.440;2023-07-20T05:18:05;5.57;;;2.50;;
81510;SDS011;70931;48.796;8.440;2023-07-20T05:20:30;5.80;;;2.23;;
81510;SDS011;70931;48.796;8.440;2023-07-20T05:22:56;6.33;;;2.10;;
81510;SDS011;70931;48.796;8.440;2023-07-20T05:25:21;5.67;;;2.23;;
81510;SDS011;70931;48.796;8.440;2023-07-20T05:27:46;5.17;;;2.53;;
81510;SDS011;70931;48.796;8.440;2023-07-20T05:30:11;7.00;;;2.33;;
81510;SDS011;70931;48.796;8.440;2023-07-20T05:32:37;6.30;;;2.30;;
81510;SDS011;70931;48.796;8.440;2023-07-20T05:35:02;5.63;;;2.33;;
81510;SDS011;70931;48.796;8.440;2023-07-20T05:37:27;5.85;;;2.63;;
81510;SDS011;70931;48.796;8.440;2023-07-20T05:39:53;6.07;;;2.20;;
81510;SDS011;70931;48.796;8.440;2023-07-20T05:42:18;5.40;;;2.30;;
81510;SDS011;70931;48.796;8.440;2023-07-20T05:44:43;6.13;;;2.00;;
81510;SDS011;70931;48.796;8.440;2023-07-20T05:47:08;4.27;;;1.90;;
81510;SDS011;70931;48.796;8.440;2023-07-20T05:49:34;6.57;;;2.27;;
81510;SDS011;70931;48.796;8.440;2023-07-20T05:51:59;5.72;;;2.10;;
81510;SDS011;70931;48.796;8.440;2023-07-20T05:54:25;6.78;;;2.45;;
81510;SDS011;70931;48.796;8.440;2023-07-20T05:56:50;6.37;;;2.73;;
81510;SDS011;70931;48.796;8.440;2023-07-20T05:59:15;6.17;;;3.20;;
81510;SDS011;70931;48.796;8.440;2023-07-20T06:01:41;6.80;;;2.30;;
81510;SDS011;70931;48.796;8.440;2023-07-20T06:04:06;5.90;;;2.33;;
81510;SDS011;70931;48.796;8.440;2023-07-20T06:06:31;5.90;;;2.23;;
81510;SDS011;70931;48.796;8.440;2023-07-20T06:08:56;5.43;;;2.10;;
81510;SDS011;70931;48.796;8.440;2023-07-20T06:11:21;6.03;;;2.60;;
81510;SDS011;70931;48.796;8.440;2023-07-20T06:13:47;8.23;;;2.63;;
81510;SDS011;70931;48.796;8.440;2023-07-20T06:16:12;7.83;;;2.30;;
81510;SDS011;70931;48.796;8.440;2023-07-20T06:18:37;5.20;;;2.00;;
81510;SDS011;70931;48.796;8.440;2023-07-20T06:21:02;5.87;;;2.30;;
81510;SDS011;70931;48.796;8.440;2023-07-20T06:23:28;5.47;;;2.00;;
81510;SDS011;70931;48.796;8.440;2023-07-20T06:25:53;7.57;;;2.40;;
81510;SDS011;70931;48.796;8.440;2023-07-20T06:28:18;7.57;;;2.30;;
81510;SDS011;70931;48.796;8.440;2023-07-20T06:30:43;6.77;;;2.13;;
81510;SDS011;70931;48.796;8.440;2023-07-20T06:33:08;6.77;;;2.23;;
81510;SDS011;70931;48.796;8.440;2023-07-20T06:35:34;5.90;;;2.30;;
81510;SDS011;70931;48.796;8.440;2023-07-20T06:37:59;8.57;;;2.38;;
81510;SDS011;70931;48.796;8.440;2023-07-20T06:40:25;6.27;;;2.33;;
81510;SDS011;70931;48.796;8.440;2023-07-20T06:42:50;5.63;;;2.07;;
81510;SDS011;70931;48.796;8.440;2023-07-20T06:45:15;5.40;;;2.07;;
81510;SDS011;70931;48.796;8.440;2023-07-20T06:47:40;7.20;;;2.33;;
81510;SDS011;70931;48.796;8.440;2023-07-20T06:50:06;6.97;;;2.10;;
81510;SDS011;70931;48.796;8.440;2023-07-20T06:52:32;5.22;;;2.10;;
81510;SDS011;70931;48.796;8.440;2023-07-20T06:54:57;6.15;;;2.30;;
81510;SDS011;70931;48.796;8.440;2023-07-20T06:57:22;6.03;;;2.50;;
81510;SDS011;70931;48.796;8.440;2023-07-20T06:59:48;5.63;;;2.40;;
81510;SDS011;70931;48.796;8.440;2023-07-20T07:02:13;9.02;;;2.75;;
81510;SDS011;70931;48.796;8.440;2023-07-20T07:04:38;8.10;;;2.23;;
81510;SDS011;70931;48.796;8.440;2023-07-20T07:07:03;6.80;;;2.77;;
81510;SDS011;70931;48.796;8.440;2023-07-20T07:09:29;6.60;;;2.80;;
81510;SDS011;70931;48.796;8.440;2023-07-20T07:11:54;6.40;;;2.90;;
81510;SDS011;70931;48.796;8.440;2023-07-20T07:14:20;5.67;;;2.60;;
81510;SDS011;70931;48.796;8.440;2023-07-20T07:16:45;5.80;;;2.40;;
81510;SDS011;70931;48.796;8.440;2023-07-20T07:19:10;5.73;;;2.43;;
81510;SDS011;70931;48.796;8.440;2023-07-20T07:21:36;5.53;;;2.30;;
81510;SDS011;70931;48.796;8.440;2023-07-20T07:24:01;5.57;;;2.43;;
81510;SDS011;70931;48.796;8.440;2023-07-20T07:26:26;8.07;;;2.47;;
81510;SDS011;70931;48.796;8.440;2023-07-20T07:28:51;8.33;;;2.27;;
81510;SDS011;70931;48.796;8.440;2023-07-20T07:31:17;4.67;;;1.80;;
81510;SDS011;70931;48.796;8.440;2023-07-20T07:33:42;6.03;;;1.90;;
81510;SDS011;70931;48.796;8.440;2023-07-20T07:36:07;6.50;;;2.10;;
81510;SDS011;70931;48.796;8.440;2023-07-20T07:38:32;4.00;;;1.77;;
81510;SDS011;70931;48.796;8.440;2023-07-20T07:40:58;9.27;;;2.33;;
81510;SDS011;70931;48.796;8.440;2023-07-20T07:43:23;5.13;;;2.00;;
81510;SDS011;70931;48.796;8.440;2023-07-20T07:45:49;5.60;;;2.40;;
81510;SDS011;70931;48.796;8.440;2023-07-20T07:48:14;6.75;;;2.45;;
81510;SDS011;70931;48.796;8.440;2023-07-20T07:50:40;7.17;;;2.60;;
81510;SDS011;70931;48.796;8.440;2023-07-20T07:53:05;5.03;;;2.20;;
81510;SDS011;70931;48.796;8.440;2023-07-20T07:55:30;6.95;;;2.28;;
81510;SDS011;70931;48.796;8.440;2023-07-20T07:57:56;6.00;;;2.30;;
81510;SDS011;70931;48.796;8.440;2023-07-20T08:00:21;6.77;;;2.37;;
81510;SDS011;70931;48.796;8.440;2023-07-20T08:02:47;5.13;;;2.00;;
81510;SDS011;70931;48.796;8.440;2023-07-20T08:05:12;6.72;;;2.28;;
81510;SDS011;70931;48.796;8.440;2023-07-20T08:07:37;6.50;;;2.00;;
81510;SDS011;70931;48.796;8.440;2023-07-20T08:10:03;5.60;;;2.50;;
81510;SDS011;70931;48.796;8.440;2023-07-20T08:12:29;5.05;;;2.10;;
81510;SDS011;70931;48.796;8.440;2023-07-20T08:14:54;5.43;;;2.10;;
81510;SDS011;70931;48.796;8.440;2023-07-20T08:17:19;5.23;;;1.87;;
81510;SDS011;70931;48.796;8.440;2023-07-20T08:19:45;6.70;;;2.10;;
81510;SDS011;70931;48.796;8.440;2023-07-20T08:22:11;4.90;;;2.00;;
81510;SDS011;70931;48.796;8.440;2023-07-20T08:24:38;4.83;;;1.80;;
81510;SDS011;70931;48.796;8.440;2023-07-20T08:27:04;5.65;;;2.10;;
81510;SDS011;70931;48.796;8.440;2023-07-20T08:29:30;5.25;;;2.03;;
81510;SDS011;70931;48.796;8.440;2023-07-20T08:31:55;8.63;;;2.13;;
81510;SDS011;70931;48.796;8.440;2023-07-20T08:34:20;5.57;;;2.43;;
81510;SDS011;70931;48.796;8.440;2023-07-20T08:36:45;5.97;;;2.47;;
81510;SDS011;70931;48.796;8.440;2023-07-20T08:39:11;8.20;;;2.40;;
81510;SDS011;70931;48.796;8.440;2023-07-20T08:41:36;5.80;;;1.80;;
81510;SDS011;70931;48.796;8.440;2023-07-20T08:44:01;6.75;;;2.30;;
81510;SDS011;70931;48.796;8.440;2023-07-20T08:46:27;4.07;;;2.00;;
81510;SDS011;70931;48.796;8.440;2023-07-20T08:48:54;6.20;;;2.05;;
81510;SDS011;70931;48.796;8.440;2023-07-20T08:53:46;4.90;;;1.80;;
81510;SDS011;70931;48.796;8.440;2023-07-20T08:56:12;5.20;;;1.77;;
81510;SDS011;70931;48.796;8.440;2023-07-20T08:58:40;5.55;;;2.05;;
81510;SDS011;70931;48.796;8.440;2023-07-20T09:01:08;6.88;;;2.05;;
81510;SDS011;70931;48.796;8.440;2023-07-20T09:03:33;4.90;;;1.60;;
81510;SDS011;70931;48.796;8.440;2023-07-20T09:05:58;6.23;;;2.10;;
81510;SDS011;70931;48.796;8.440;2023-07-20T09:08:24;5.53;;;1.80;;
81510;SDS011;70931;48.796;8.440;2023-07-20T09:10:49;6.27;;;2.30;;
81510;SDS011;70931;48.796;8.440;2023-07-20T09:13:15;6.43;;;1.97;;
81510;SDS011;70931;48.796;8.440;2023-07-20T09:15:45;4.97;;;1.70;;
81510;SDS011;70931;48.796;8.440;2023-07-20T09:18:11;4.55;;;1.73;;
81510;SDS011;70931;48.796;8.440;2023-07-20T09:20:36;4.23;;;1.70;;
81510;SDS011;70931;48.796;8.440;2023-07-20T09:23:05;4.23;;;1.93;;
81510;SDS011;70931;48.796;8.440;2023-07-20T09:25:30;4.22;;;1.58;;
81510;SDS011;70931;48.796;8.440;2023-07-20T09:27:55;4.20;;;2.00;;
81510;SDS011;70931;48.796;8.440;2023-07-20T09:30:21;3.90;;;1.63;;
81510;SDS011;70931;48.796;8.440;2023-07-20T09:32:52;6.00;;;1.77;;
81510;SDS011;70931;48.796;8.440;2023-07-20T09:35:18;5.07;;;1.80;;
81510;SDS011;70931;48.796;8.440;2023-07-20T09:40:18;4.30;;;1.70;;
81510;SDS011;70931;48.796;8.440;2023-07-20T09:42:44;4.90;;;1.80;;
81510;SDS011;70931;48.796;8.440;2023-07-20T09:45:09;4.63;;;1.90;;
81510;SDS011;70931;48.796;8.440;2023-07-20T09:47:38;3.97;;;1.75;;
81510;SDS011;70931;48.796;8.440;2023-07-20T09:50:03;3.72;;;1.50;;
81510;SDS011;70931;48.796;8.440;2023-07-20T09:52:30;3.80;;;1.75;;
81510;SDS011;70931;48.796;8.440;2023-07-20T09:54:56;4.38;;;1.70;;
81510;SDS011;70931;48.796;8.440;2023-07-20T09:57:22;4.82;;;2.10;;
81510;SDS011;70931;48.796;8.440;2023-07-20T09:59:48;5.03;;;1.90;;
81510;SDS011;70931;48.796;8.440;2023-07-20T10:02:17;5.80;;;1.70;;
81510;SDS011;70931;48.796;8.440;2023-07-20T10:04:45;5.40;;;2.00;;
81510;SDS011;70931;48.796;8.440;2023-07-20T10:07:11;6.20;;;1.77;;
81510;SDS011;70931;48.796;8.440;2023-07-20T10:12:04;4.13;;;1.73;;
81510;SDS011;70931;48.796;8.440;2023-07-20T10:14:32;4.20;;;1.70;;
81510;SDS011;70931;48.796;8.440;2023-07-20T10:17:03;4.10;;;1.88;;
81510;SDS011;70931;48.796;8.440;2023-07-20T10:22:14;4.40;;;1.58;;
81510;SDS011;70931;48.796;8.440;2023-07-20T10:24:44;4.47;;;1.60;;
81510;SDS011;70931;48.796;8.440;2023-07-20T10:27:12;3.35;;;1.30;;
81510;SDS011;70931;48.796;8.440;2023-07-20T10:29:37;3.72;;;1.63;;
81510;SDS011;70931;48.796;8.440;2023-07-20T10:32:04;3.90;;;1.33;;
81510;SDS011;70931;48.796;8.440;2023-07-20T10:34:30;4.25;;;1.73;;
81510;SDS011;70931;48.796;8.440;2023-07-20T10:36:56;5.45;;;1.60;;
81510;SDS011;70931;48.796;8.440;2023-07-20T10:39:22;3.83;;;1.40;;
81510;SDS011;70931;48.796;8.440;2023-07-20T10:41:48;3.63;;;1.52;;
81510;SDS011;70931;48.796;8.440;2023-07-20T10:44:14;3.23;;;1.40;;
81510;SDS011;70931;48.796;8.440;2023-07-20T10:46:45;4.00;;;1.40;;
81510;SDS011;70931;48.796;8.440;2023-07-20T10:49:11;4.25;;;1.70;;
81510;SDS011;70931;48.796;8.440;2023-07-20T10:54:07;3.88;;;1.60;;
81510;SDS011;70931;48.796;8.440;2023-07-20T10:56:33;3.88;;;1.52;;
81510;SDS011;70931;48.796;8.440;2023-07-20T10:58:59;3.87;;;1.47;;
81510;SDS011;70931;48.796;8.440;2023-07-20T11:01:28;4.60;;;1.50;;
81510;SDS011;70931;48.796;8.440;2023-07-20T11:03:57;5.00;;;1.60;;
81510;SDS011;70931;48.796;8.440;2023-07-20T11:08:48;3.60;;;1.80;;
81510;SDS011;70931;48.796;8.440;2023-07-20T11:11:26;3.85;;;1.75;;
81510;SDS011;70931;48.796;8.440;2023-07-20T11:14:03;5.70;;;1.75;;
81510;SDS011;70931;48.796;8.440;2023-07-20T11:16:33;4.72;;;1.73;;
81510;SDS011;70931;48.796;8.440;2023-07-20T11:18:59;5.05;;;2.05;;
81510;SDS011;70931;48.796;8.440;2023-07-20T11:21:25;4.32;;;1.60;;
81510;SDS011;70931;48.796;8.440;2023-07-20T11:23:52;5.63;;;1.70;;
81510;SDS011;70931;48.796;8.440;2023-07-20T11:26:17;4.82;;;1.50;;
81510;SDS011;70931;48.796;8.440;2023-07-20T11:28:43;5.07;;;1.50;;
81510;SDS011;70931;48.796;8.440;2023-07-20T11:31:08;4.37;;;1.60;;
81510;SDS011;70931;48.796;8.440;2023-07-20T11:33:33;4.80;;;1.40;;
81510;SDS011;70931;48.796;8.440;2023-07-20T11:35:58;3.20;;;1.40;;
81510;SDS011;70931;48.796;8.440;2023-07-20T11:38:24;4.50;;;1.30;;
81510;SDS011;70931;48.796;8.440;2023-07-20T11:40:49;4.32;;;1.67;;
81510;SDS011;70931;48.796;8.440;2023-07-20T11:43:14;3.70;;;1.40;;
81510;SDS011;70931;48.796;8.440;2023-07-20T11:45:40;3.67;;;1.60;;
81510;SDS011;70931;48.796;8.440;2023-07-20T11:48:05;3.63;;;1.40;;
81510;SDS011;70931;48.796;8.440;2023-07-20T11:50:31;4.35;;;1.40;;
81510;SDS011;70931;48.796;8.440;2023-07-20T11:52:56;2.83;;;1.30;;
81510;SDS011;70931;48.796;8.440;2023-07-20T11:55:22;4.80;;;1.67;;
81510;SDS011;70931;48.796;8.440;2023-07-20T11:58:00;5.05;;;1.33;;
81510;SDS011;70931;48.796;8.440;2023-07-20T12:00:27;3.28;;;1.27;;
81510;SDS011;70931;48.796;8.440;2023-07-20T12:02:53;3.15;;;1.30;;
81510;SDS011;70931;48.796;8.440;2023-07-20T12:05:18;3.28;;;1.50;;
81510;SDS011;70931;48.796;8.440;2023-07-20T12:07:44;3.33;;;1.20;;
81510;SDS011;70931;48.796;8.440;2023-07-20T12:10:10;3.97;;;1.30;;
81510;SDS011;70931;48.796;8.440;2023-07-20T12:12:40;4.03;;;1.30;;
81510;SDS011;70931;48.796;8.440;2023-07-20T12:15:25;4.65;;;1.40;;
81510;SDS011;70931;48.796;8.440;2023-07-20T12:17:55;4.28;;;1.40;;
81510;SDS011;70931;48.796;8.440;2023-07-20T12:20:24;3.60;;;1.33;;
81510;SDS011;70931;48.796;8.440;2023-07-20T12:22:58;5.13;;;1.70;;
81510;SDS011;70931;48.796;8.440;2023-07-20T12:25:32;4.00;;;1.40;;
81510;SDS011;70931;48.796;8.440;2023-07-20T12:28:11;3.10;;;1.38;;
81510;SDS011;70931;48.796;8.440;2023-07-20T12:30:38;4.45;;;1.58;;
81510;SDS011;70931;48.796;8.440;2023-07-20T12:33:04;3.58;;;1.30;;
81510;SDS011;70931;48.796;8.440;2023-07-20T12:35:30;4.18;;;1.40;;
81510;SDS011;70931;48.796;8.440;2023-07-20T12:37:56;3.17;;;1.30;;
81510;SDS011;70931;48.796;8.440;2023-07-20T12:40:22;3.65;;;1.60;;
81510;SDS011;70931;48.796;8.440;2023-07-20T12:42:47;2.83;;;1.30;;
81510;SDS011;70931;48.796;8.440;2023-07-20T12:45:13;3.50;;;1.43;;
81510;SDS011;70931;48.796;8.440;2023-07-20T12:47:38;3.08;;;1.42;;
81510;SDS011;70931;48.796;8.440;2023-07-20T12:50:04;4.53;;;1.40;;
81510;SDS011;70931;48.796;8.440;2023-07-20T12:52:29;4.30;;;1.40;;
81510;SDS011;70931;48.796;8.440;2023-07-20T12:54:54;4.83;;;1.53;;
81510;SDS011;70931;48.796;8.440;2023-07-20T12:57:20;6.20;;;1.30;;
81510;SDS011;70931;48.796;8.440;2023-07-20T12:59:45;2.20;;;1.10;;
81510;SDS011;70931;48.796;8.440;2023-07-20T13:02:10;3.43;;;1.43;;
81510;SDS011;70931;48.796;8.440;2023-07-20T13:04:35;2.67;;;1.30;;
81510;SDS011;70931;48.796;8.440;2023-07-20T13:07:01;6.30;;;1.83;;
81510;SDS011;70931;48.796;8.440;2023-07-20T13:09:26;3.07;;;1.43;;
81510;SDS011;70931;48.796;8.440;2023-07-20T13:11:51;6.80;;;1.67;;
81510;SDS011;70931;48.796;8.440;2023-07-20T13:14:16;2.80;;;1.20;;
81510;SDS011;70931;48.796;8.440;2023-07-20T13:16:41;3.03;;;1.43;;
81510;SDS011;70931;48.796;8.440;2023-07-20T13:19:07;3.93;;;1.40;;
81510;SDS011;70931;48.796;8.440;2023-07-20T13:21:32;4.77;;;1.50;;
81510;SDS011;70931;48.796;8.440;2023-07-20T13:23:57;2.80;;;1.30;;
81510;SDS011;70931;48.796;8.440;2023-07-20T13:26:22;2.43;;;1.13;;
81510;SDS011;70931;48.796;8.440;2023-07-20T13:28:48;3.80;;;1.40;;
81510;SDS011;70931;48.796;8.440;2023-07-20T13:31:13;3.83;;;1.40;;
81510;SDS011;70931;48.796;8.440;2023-07-20T13:33:38;5.63;;;2.07;;
81510;SDS011;70931;48.796;8.440;2023-07-20T13:36:03;2.87;;;1.30;;
81510;SDS011;70931;48.796;8.440;2023-07-20T13:38:30;3.67;;;1.48;;
81510;SDS011;70931;48.796;8.440;2023-07-20T13:40:55;2.87;;;1.27;;
81510;SDS011;70931;48.796;8.440;2023-07-20T13:43:20;3.33;;;1.40;;
81510;SDS011;70931;48.796;8.440;2023-07-20T13:45:45;3.03;;;1.33;;
81510;SDS011;70931;48.796;8.440;2023-07-20T13:48:11;2.97;;;1.20;;
81510;SDS011;70931;48.796;8.440;2023-07-20T13:50:36;3.70;;;1.40;;
81510;SDS011;70931;48.796;8.440;2023-07-20T13:53:01;3.73;;;1.43;;
81510;SDS011;70931;48.796;8.440;2023-07-20T13:55:26;3.20;;;1.30;;
81510;SDS011;70931;48.796;8.440;2023-07-20T13:57:51;4.20;;;1.60;;
81510;SDS011;70931;48.796;8.440;2023-07-20T14:00:17;2.83;;;1.30;;
81510;SDS011;70931;48.796;8.440;2023-07-20T14:02:42;3.70;;;1.30;;
81510;SDS011;70931;48.796;8.440;2023-07-20T14:05:07;4.77;;;1.50;;
81510;SDS011;70931;48.796;8.440;2023-07-20T14:07:33;3.67;;;1.50;;
81510;SDS011;70931;48.796;8.440;2023-07-20T14:09:58;3.97;;;1.50;;
81510;SDS011;70931;48.796;8.440;2023-07-20T14:12:23;4.13;;;1.50;;
81510;SDS011;70931;48.796;8.440;2023-07-20T14:14:49;3.37;;;1.60;;
81510;SDS011;70931;48.796;8.440;2023-07-20T14:17:14;3.80;;;1.60;;
81510;SDS011;70931;48.796;8.440;2023-07-20T14:19:39;4.70;;;1.57;;
81510;SDS011;70931;48.796;8.440;2023-07-20T14:22:04;3.97;;;1.70;;
81510;SDS011;70931;48.796;8.440;2023-07-20T14:24:30;4.68;;;1.73;;
81510;SDS011;70931;48.796;8.440;2023-07-20T14:26:55;3.67;;;1.67;;
81510;SDS011;70931;48.796;8.440;2023-07-20T14:29:21;3.33;;;1.40;;
81510;SDS011;70931;48.796;8.440;2023-07-20T14:31:46;3.70;;;1.63;;
81510;SDS011;70931;48.796;8.440;2023-07-20T14:34:11;2.43;;;1.20;;
81510;SDS011;70931;48.796;8.440;2023-07-20T14:36:36;3.53;;;1.33;;
81510;SDS011;70931;48.796;8.440;2023-07-20T14:39:02;3.80;;;1.40;;
81510;SDS011;70931;48.796;8.440;2023-07-20T14:41:27;4.00;;;1.75;;
81510;SDS011;70931;48.796;8.440;2023-07-20T14:43:52;4.13;;;1.50;;
81510;SDS011;70931;48.796;8.440;2023-07-20T14:46:17;3.70;;;1.40;;
81510;SDS011;70931;48.796;8.440;2023-07-20T14:48:43;3.33;;;1.30;;
81510;SDS011;70931;48.796;8.440;2023-07-20T14:51:08;4.87;;;1.40;;
81510;SDS011;70931;48.796;8.440;2023-07-20T14:53:33;2.80;;;1.40;;
81510;SDS011;70931;48.796;8.440;2023-07-20T14:55:59;3.03;;;1.40;;
81510;SDS011;70931;48.796;8.440;2023-07-20T14:58:25;4.00;;;1.77;;
81510;SDS011;70931;48.796;8.440;2023-07-20T15:00:50;3.30;;;1.50;;
81510;SDS011;70931;48.796;8.440;2023-07-20T15:03:16;3.33;;;1.43;;
81510;SDS011;70931;48.796;8.440;2023-07-20T15:05:41;2.87;;;1.30;;